Time;durP1;ratioP1;P1;durP2;ratioP2;P2;SDS_P1;SDS_P2;PMS_P1;PMS_P2;Temp;Humidity;BMP_temperature;BMP_pressure;BME280_temperature;BME280_humidity;BME280_pressure;Samples;Min_cycle;Max_cycle;Signal;HPM_P1;HPM_P2
2021/07/06 00:00:53;;;;;;;;;;;;;;;;;;4924514;28;19926;-91
2021/07/06 00:03:20;;;;;;;;;;;;;;;;;;4944004;28;19926;-92
2021/07/06 00:05:46;;;;;;;;;;;;;;;;;;4925789;28;20500;-92
2021/07/06 00:08:12;;;;;;;;;;;;;;;;;;4928617;28;19958;-92
2021/07/06 00:10:38;;;;;;;;;;;;;;;;;;4944755;28;19976;-92
2021/07/06 00:13:04;;;;;;;;;;;;;;;;;;4928412;28;19925;-92
2021/07/06 00:15:31;;;;;;;;;;;;;;;;;;4932823;28;19929;-92
2021/07/06 00:17:57;;;;;;;;;;;;;;;;;;4927676;28;19922;-92
2021/07/06 00:20:25;;;;;;;;;;;;;;;;;;4939802;28;20305;-92
2021/07/06 00:22:51;;;;;;;;;;;;;;;;;;4943438;28;19923;-92
2021/07/06 00:25:17;;;;;;;;;;;;;;;;;;4946023;28;20366;-92
2021/07/06 00:27:43;;;;;;;;;;;;;;;;;;4932858;28;19919;-91
2021/07/06 00:30:09;;;;;;;;;;;;;;;;;;4943691;28;20076;-92
2021/07/06 00:32:35;;;;;;;;;;;;;;;;;;4941207;28;20690;-92
2021/07/06 00:35:01;;;;;;;;;;;;;;;;;;4937251;28;20665;-92
2021/07/06 00:37:27;;;;;;;;;;;;;;;;;;4939771;28;20064;-92
2021/07/06 00:39:53;;;;;;;;;;;;;;;;;;4926157;28;19934;-92
2021/07/06 00:42:20;;;;;;;;;;;;;;;;;;4942291;28;19926;-92
2021/07/06 00:44:46;;;;;;;;;;;;;;;;;;4928602;28;19919;-92
2021/07/06 00:47:12;;;;;;;;;;;;;;;;;;4941916;28;19919;-92
2021/07/06 00:49:38;;;;;;;;;;;;;;;;;;4937885;28;19966;-93
2021/07/06 00:52:04;;;;;;;;;;;;;;;;;;4942561;28;19962;-92
2021/07/06 00:54:30;;;;;;;;;;;;;;;;;;4931257;28;20073;-92
2021/07/06 00:56:56;;;;;;;;;;;;;;;;;;4948513;28;19922;-92
2021/07/06 00:59:22;;;;;;;;;;;;;;;;;;4943808;28;20491;-92
2021/07/06 01:01:48;;;;;;;;;;;;;;;;;;4939792;28;19942;-92
2021/07/06 01:04:14;;;;;;;;;;;;;;;;;;4944293;28;19923;-93
2021/07/06 01:06:40;;;;;;;;;;;;;;;;;;4933729;28;19918;-92
2021/07/06 01:09:06;;;;;;;;;;;;;;;;;;4942284;28;19922;-92
2021/07/06 01:11:32;;;;;;;;;;;;;;;;;;4948472;28;20259;-92
2021/07/06 01:13:58;;;;;;;;;;;;;;;;;;4929973;28;19921;-92
2021/07/06 01:16:24;;;;;;;;;;;;;;;;;;4950575;28;19927;-93
2021/07/06 01:18:50;;;;;;;;;;;;;;;;;;4934382;28;19930;-93
2021/07/06 01:21:16;;;;;;;;;;;;;;;;;;4946095;28;19922;-92
2021/07/06 01:23:42;;;;;;;;;;;;;;;;;;4948104;28;19926;-92
2021/07/06 01:26:08;;;;;;;;;;;;;;;;;;4930827;28;19919;-92
2021/07/06 01:28:34;;;;;;;;;;;;;;;;;;4942588;28;19923;-92
2021/07/06 01:31:00;;;;;;;;;;;;;;;;;;4926901;28;19930;-92
2021/07/06 01:33:26;;;;;;;;;;;;;;;;;;4928443;28;19923;-92
2021/07/06 01:35:52;;;;;;;;;;;;;;;;;;4923536;28;19918;-92
2021/07/06 01:38:18;;;;;;;;;;;;;;;;;;4940130;28;19919;-93
2021/07/06 01:40:44;;;;;;;;;;;;;;;;;;4941158;28;19933;-92
2021/07/06 01:43:10;;;;;;;;;;;;;;;;;;4942849;28;19922;-92
2021/07/06 01:45:37;;;;;;;;;;;;;;;;;;4943197;28;20037;-93
2021/07/06 01:48:03;;;;;;;;;;;;;;;;;;4942403;28;19948;-92
2021/07/06 01:50:29;;;;;;;;;;;;;;;;;;4933368;28;19918;-93
2021/07/06 01:52:55;;;;;;;;;;;;;;;;;;4959434;28;19905;-93
2021/07/06 01:55:21;;;;;;;;;;;;;;;;;;4967204;28;19994;-93
2021/07/06 01:57:47;;;;;;;;;;;;;;;;;;4941362;28;20016;-93
2021/07/06 02:00:13;;;;;;;;;;;;;;;;;;4936281;28;19957;-93
2021/07/06 02:02:39;;;;;;;;;;;;;;;;;;4938400;28;19915;-93
2021/07/06 02:05:05;;;;;;;;;;;;;;;;;;4932904;28;19919;-92
2021/07/06 02:07:31;;;;;;;;;;;;;;;;;;4937109;28;19926;-92
2021/07/06 02:09:57;;;;;;;;;;;;;;;;;;4947215;28;19918;-92
2021/07/06 02:12:23;;;;;;;;;;;;;;;;;;4947755;28;19919;-93
2021/07/06 02:14:49;;;;;;;;;;;;;;;;;;4947573;28;19915;-93
2021/07/06 02:17:15;;;;;;;;;;;;;;;;;;4948849;28;19964;-92
2021/07/06 02:19:41;;;;;;;;;;;;;;;;;;4944283;28;20321;-93
2021/07/06 02:22:07;;;;;;;;;;;;;;;;;;4931107;28;20286;-92
2021/07/06 02:24:33;;;;;;;;;;;;;;;;;;4947923;28;19914;-91
2021/07/06 02:26:59;;;;;;;;;;;;;;;;;;4931521;28;20382;-91
2021/07/06 02:29:25;;;;;;;;;;;;;;;;;;4934567;28;19911;-92
2021/07/06 02:31:51;;;;;;;;;;;;;;;;;;4940800;28;19923;-92
2021/07/06 02:34:17;;;;;;;;;;;;;;;;;;4929125;28;19922;-92
2021/07/06 02:36:43;;;;;;;;;;;;;;;;;;4947835;28;19969;-91
2021/07/06 02:39:09;;;;;;;;;;;;;;;;;;4930146;28;20291;-94
2021/07/06 02:41:35;;;;;;;;;;;;;;;;;;4950754;28;20840;-92
2021/07/06 02:44:01;;;;;;;;;;;;;;;;;;4944029;28;19961;-92
2021/07/06 02:46:27;;;;;;;;;;;;;;;;;;4945989;28;20346;-93
2021/07/06 02:48:53;;;;;;;;;;;;;;;;;;4946657;28;19915;-91
2021/07/06 02:51:19;;;;;;;;;;;;;;;;;;4950672;28;19919;-92
2021/07/06 02:53:46;;;;;;;;;;;;;;;;;;4948153;28;19918;-92
2021/07/06 02:56:13;;;;;;;;;;;;;;;;;;4933759;28;19915;-91
2021/07/06 02:58:39;;;;;;;;;;;;;;;;;;4938865;28;19938;-93
2021/07/06 03:01:05;;;;;;;;;;;;;;;;;;4948195;28;19930;-94
2021/07/06 03:03:31;;;;;;;;;;;;;;;;;;4934660;28;19954;-93
2021/07/06 03:05:57;;;;;;;;;;;;;;;;;;4930943;28;19918;-92
2021/07/06 03:08:25;;;;;;;;;;;;;;;;;;4933358;28;19922;-94
2021/07/06 03:10:51;;;;;;;;;;;;;;;;;;4931571;28;19931;-93
2021/07/06 03:13:17;;;;;;;;;;;;;;;;;;4945594;28;20418;-93
2021/07/06 03:15:43;;;;;;;;;;;;;;;;;;4945839;28;19918;-93
2021/07/06 03:18:10;;;;;;;;;;;;;;;;;;4925692;28;22435;-93
2021/07/06 03:20:36;;;;;;;;;;;;;;;;;;4938797;28;19923;-93
2021/07/06 03:23:03;;;;;;;;;;;;;;;;;;4942799;28;20061;-93
2021/07/06 03:25:29;;;;;;;;;;;;;;;;;;4940631;28;19919;-93
2021/07/06 03:27:55;;;;;;;;;;;;;;;;;;4942249;28;19961;-93
2021/07/06 03:30:21;;;;;;;;;;;;;;;;;;4944469;28;20568;-93
2021/07/06 03:32:47;;;;;;;;;;;;;;;;;;4930028;28;19915;-93
2021/07/06 03:35:13;;;;;;;;;;;;;;;;;;4943040;28;19922;-93
2021/07/06 03:37:39;;;;;;;;;;;;;;;;;;4942011;28;20057;-93
2021/07/06 03:40:05;;;;;;;;;;;;;;;;;;4948230;28;20005;-93
2021/07/06 03:42:31;;;;;;;;;;;;;;;;;;4949270;28;20928;-93
2021/07/06 03:44:57;;;;;;;;;;;;;;;;;;4933847;28;19929;-93
2021/07/06 03:47:23;;;;;;;;;;;;;;;;;;4935192;28;19937;-93
2021/07/06 03:49:49;;;;;;;;;;;;;;;;;;4944355;28;20552;-93
2021/07/06 03:52:15;;;;;;;;;;;;;;;;;;4946230;28;19918;-93
2021/07/06 03:54:41;;;;;;;;;;;;;;;;;;4948229;28;19918;-93
2021/07/06 03:57:07;;;;;;;;;;;;;;;;;;4944842;28;19925;-93
2021/07/06 03:59:33;;;;;;;;;;;;;;;;;;4936604;28;19923;-93
2021/07/06 04:02:02;;;;;;;;;;;;;;;;;;4933996;28;19960;-92
2021/07/06 04:04:28;;;;;;;;;;;;;;;;;;4953360;28;20010;-93
2021/07/06 04:06:54;;;;;;;;;;;;;;;;;;4935003;28;19921;-94
2021/07/06 04:09:20;;;;;;;;;;;;;;;;;;4935035;28;19945;-93
2021/07/06 04:11:46;;;;;;;;;;;;;;;;;;4949071;28;19915;-93
2021/07/06 04:14:13;;;;;;;;;;;;;;;;;;4948372;28;19915;-92
2021/07/06 04:16:39;;;;;;;;;;;;;;;;;;4931426;28;20539;-92
2021/07/06 04:19:08;;;;;;;;;;;;;;;;;;4945776;28;19930;-92
2021/07/06 04:21:34;;;;;;;;;;;;;;;;;;4931848;28;19977;-93
2021/07/06 04:24:00;;;;;;;;;;;;;;;;;;4940873;28;19914;-93
2021/07/06 04:26:26;;;;;;;;;;;;;;;;;;4936799;28;20065;-92
2021/07/06 04:28:52;;;;;;;;;;;;;;;;;;4929924;28;19965;-93
2021/07/06 04:31:18;;;;;;;;;;;;;;;;;;4946361;28;20071;-92
2021/07/06 04:33:44;;;;;;;;;;;;;;;;;;4935111;28;19969;-93
2021/07/06 04:36:10;;;;;;;;;;;;;;;;;;4941026;28;19924;-92
2021/07/06 04:38:36;;;;;;;;;;;;;;;;;;4950403;28;20012;-92
2021/07/06 04:41:02;;;;;;;;;;;;;;;;;;4947875;28;19926;-91
2021/07/06 04:43:28;;;;;;;;;;;;;;;;;;4935380;28;19977;-92
2021/07/06 04:45:54;;;;;;;;;;;;;;;;;;4948689;28;19914;-90
2021/07/06 04:48:20;;;;;;;;;;;;;;;;;;4935447;28;19922;-91
2021/07/06 04:50:46;;;;;;;;;;;;;;;;;;4936462;28;19930;-91
2021/07/06 04:53:12;;;;;;;;;;;;;;;;;;4947105;28;19922;-90
2021/07/06 04:55:40;;;;;;;;;;;;;;;;;;4950448;28;19914;-91
2021/07/06 04:58:06;;;;;;;;;;;;;;;;;;4931173;28;19937;-90
2021/07/06 05:00:32;;;;;;;;;;;;;;;;;;4935275;28;19934;-92
2021/07/06 05:02:58;;;;;;;;;;;;;;;;;;4930795;28;19923;-90
2021/07/06 05:05:24;;;;;;;;;;;;;;;;;;4947385;28;19918;-90
2021/07/06 05:07:50;;;;;;;;;;;;;;;;;;4930460;28;19929;-89
2021/07/06 05:10:17;;;;;;;;;;;;;;;;;;4933275;28;19914;-91
2021/07/06 05:12:43;;;;;;;;;;;;;;;;;;4928644;28;19923;-92
2021/07/06 05:15:09;;;;;;;;;;;;;;;;;;4928891;28;20037;-90
2021/07/06 05:17:35;;;;;;;;;;;;;;;;;;4945116;28;19915;-90
2021/07/06 05:20:01;;;;;;;;;;;;;;;;;;4965108;28;20023;-90
2021/07/06 05:22:27;;;;;;;;;;;;;;;;;;4948238;28;19993;-91
2021/07/06 05:24:53;;;;;;;;;;;;;;;;;;4931630;28;19929;-90
2021/07/06 05:27:19;;;;;;;;;;;;;;;;;;4931732;28;20009;-90
2021/07/06 05:29:45;;;;;;;;;;;;;;;;;;4947438;28;19997;-91
2021/07/06 05:32:11;;;;;;;;;;;;;;;;;;4944365;28;19918;-94
2021/07/06 05:34:37;;;;;;;;;;;;;;;;;;4944721;29;19946;-93
2021/07/06 05:37:03;;;;;;;;;;;;;;;;;;4943044;28;19974;-91
2021/07/06 05:39:30;;;;;;;;;;;;;;;;;;4944267;28;19918;-89
2021/07/06 05:41:57;;;;;;;;;;;;;;;;;;4979653;28;19925;-93
2021/07/06 05:47:13;;;;;;;;;;;;;;;;;;5801478;23;19910;-96
2021/07/06 05:49:45;;;;;;;;;;;;;;;;;;4959748;29;19946;-96
2021/07/06 05:52:19;;;;;;;;;;;;;;;;;;4976165;28;19942;-95
2021/07/06 05:54:47;;;;;;;;;;;;;;;;;;4956706;28;20001;-96
2021/07/06 05:57:30;;;;;;;;;;;;;;;;;;;;;
2021/07/06 06:00:00;;;;;;;;;;;;;;;;;;4968736;28;19958;-95
2021/07/06 06:02:33;;;;;;;;;;;;;;;;;;4978345;28;19945;-96
2021/07/06 06:10:42;;;;;;;;;;;;;;;;;;4974417;28;19950;-96
2021/07/06 06:13:12;;;;;;;;;;;;;;;;;;4975797;28;19922;-96
2021/07/06 06:15:43;;;;;;;;;;;;;;;;;;4972916;28;19914;-96
2021/07/06 06:18:12;;;;;;;;;;;;;;;;;;4957033;28;19919;-96
2021/07/06 06:20:56;;;;;;;;;;;;;;;;;;4961671;28;20030;-96
2021/07/06 06:23:22;;;;;;;;;;;;;;;;;;4953522;29;19986;-96
2021/07/06 06:25:55;;;;;;;;;;;;;;;;;;4950160;29;19898;-96
2021/07/06 06:28:22;;;;;;;;;;;;;;;;;;4956045;29;19923;-96
2021/07/06 06:30:55;;;;;;;;;;;;;;;;;;4956573;28;20017;-96
2021/07/06 06:33:24;;;;;;;;;;;;;;;;;;4954968;28;20028;-96
2021/07/06 06:35:52;;;;;;;;;;;;;;;;;;4957302;28;19970;-95
2021/07/06 06:38:18;;;;;;;;;;;;;;;;;;4946682;29;19914;-96
2021/07/06 06:40:45;;;;;;;;;;;;;;;;;;4957915;28;19994;-95
2021/07/06 06:43:11;;;;;;;;;;;;;;;;;;4952561;28;19910;-95
2021/07/06 06:45:37;;;;;;;;;;;;;;;;;;4955412;28;19915;-96
2021/07/06 06:48:06;;;;;;;;;;;;;;;;;;4972650;28;19946;-96
2021/07/06 06:50:36;;;;;;;;;;;;;;;;;;4956210;29;19933;-96
2021/07/06 06:53:04;;;;;;;;;;;;;;;;;;4976237;28;19919;-96
2021/07/06 06:55:33;;;;;;;;;;;;;;;;;;4944588;29;19914;-96
2021/07/06 06:57:59;;;;;;;;;;;;;;;;;;4948328;28;19914;-96
2021/07/06 07:00:27;;;;;;;;;;;;;;;;;;4950884;28;19930;-96
2021/07/06 07:02:55;;;;;;;;;;;;;;;;;;4945527;28;19977;-96
2021/07/06 07:05:23;;;;;;;;;;;;;;;;;;4964215;28;19997;-96
2021/07/06 07:07:50;;;;;;;;;;;;;;;;;;4953467;28;19921;-96
2021/07/06 07:10:16;;;;;;;;;;;;;;;;;;4949077;29;19923;-96
2021/07/06 07:12:42;;;;;;;;;;;;;;;;;;4949543;28;19918;-95
2021/07/06 07:15:09;;;;;;;;;;;;;;;;;;4949181;28;20931;-96
2021/07/06 07:17:35;;;;;;;;;;;;;;;;;;4944696;29;19946;-95
2021/07/06 07:20:01;;;;;;;;;;;;;;;;;;4940606;28;19926;-96
2021/07/06 07:22:27;;;;;;;;;;;;;;;;;;4948376;29;19915;-96
2021/07/06 07:24:53;;;;;;;;;;;;;;;;;;4943423;28;19930;-96
2021/07/06 07:27:28;;;;;;;;;;;;;;;;;;4959325;28;20012;-95
2021/07/06 07:29:57;;;;;;;;;;;;;;;;;;4936605;28;19961;-94
2021/07/06 07:32:23;;;;;;;;;;;;;;;;;;4934669;28;19915;-95
2021/07/06 07:34:49;;;;;;;;;;;;;;;;;;4938813;28;20378;-94
2021/07/06 07:37:16;;;;;;;;;;;;;;;;;;4937130;28;20386;-95
2021/07/06 07:39:44;;;;;;;;;;;;;;;;;;4936640;28;20411;-93
2021/07/06 07:42:10;;;;;;;;;;;;;;;;;;4932615;28;19922;-96
2021/07/06 07:44:36;;;;;;;;;;;;;;;;;;4941122;28;19922;-95
2021/07/06 07:47:02;;;;;;;;;;;;;;;;;;4939225;28;19914;-94
2021/07/06 07:49:32;;;;;;;;;;;;;;;;;;4934535;29;19919;-96
2021/07/06 07:51:58;;;;;;;;;;;;;;;;;;4935600;29;19983;-96
2021/07/06 07:54:25;;;;;;;;;;;;;;;;;;4921562;29;20371;-95
2021/07/06 07:56:51;;;;;;;;;;;;;;;;;;4918182;29;20238;-96
2021/07/06 07:59:24;;;;;;;;;;;;;;;;;;4928245;29;19915;-96
2021/07/06 08:01:50;;;;;;;;;;;;;;;;;;4928299;29;19930;-94
2021/07/06 08:04:16;;;;;;;;;;;;;;;;;;4920758;29;19924;-96
2021/07/06 08:06:42;;;;;;;;;;;;;;;;;;4921117;29;19961;-95
2021/07/06 08:09:09;;;;;;;;;;;;;;;;;;4935897;29;19916;-96
2021/07/06 08:11:35;;;;;;;;;;;;;;;;;;4931726;29;19919;-96
2021/07/06 08:14:01;;;;;;;;;;;;;;;;;;4937050;29;19922;-96
2021/07/06 08:16:34;;;;;;;;;;;;;;;;;;4929996;29;19915;-96
2021/07/06 08:19:00;;;;;;;;;;;;;;;;;;4924570;29;19922;-96
2021/07/06 08:21:29;;;;;;;;;;;;;;;;;;4928913;29;19923;-96
2021/07/06 08:24:03;;;;;;;;;;;;;;;;;;4938687;29;19940;-96
2021/07/06 08:35:05;;;;;;;;;;;;;;;;;;4948860;23;19933;-92
2021/07/06 08:37:32;;;;;;;;;;;;;;;;;;4949195;29;19915;-90
2021/07/06 08:39:59;;;;;;;;;;;;;;;;;;4934018;29;20391;-93
2021/07/06 08:42:25;;;;;;;;;;;;;;;;;;4926468;29;19922;-91
2021/07/06 08:44:51;;;;;;;;;;;;;;;;;;4925371;29;20588;-90
2021/07/06 08:47:17;;;;;;;;;;;;;;;;;;4928275;29;19914;-90
2021/07/06 08:49:43;;;;;;;;;;;;;;;;;;4929549;29;19921;-91
2021/07/06 08:52:09;;;;;;;;;;;;;;;;;;4940287;29;19926;-89
2021/07/06 08:54:35;;;;;;;;;;;;;;;;;;4937712;29;19922;-93
2021/07/06 08:57:01;;;;;;;;;;;;;;;;;;4945599;29;19919;-91
2021/07/06 08:59:27;;;;;;;;;;;;;;;;;;4944941;29;19911;-86
2021/07/06 09:01:53;;;;;;;;;;;;;;;;;;4946444;29;19915;-93
2021/07/06 09:04:19;;;;;;;;;;;;;;;;;;4947651;29;19919;-91
2021/07/06 09:06:45;;;;;;;;;;;;;;;;;;4957046;29;19898;-93
2021/07/06 09:09:12;;;;;;;;;;;;;;;;;;4950041;29;19905;-91
2021/07/06 09:11:38;;;;;;;;;;;;;;;;;;4939588;29;19962;-89
2021/07/06 09:14:04;;;;;;;;;;;;;;;;;;4933337;29;19943;-89
2021/07/06 09:16:31;;;;;;;;;;;;;;;;;;4937483;29;19915;-88
2021/07/06 09:18:57;;;;;;;;;;;;;;;;;;4935082;29;19919;-89
2021/07/06 09:21:23;;;;;;;;;;;;;;;;;;4932666;29;20310;-89
2021/07/06 09:23:49;;;;;;;;;;;;;;;;;;4934523;29;19934;-90
2021/07/06 09:26:16;;;;;;;;;;;;;;;;;;4931179;29;19923;-89
2021/07/06 09:28:42;;;;;;;;;;;;;;;;;;4930744;29;20024;-88
2021/07/06 09:31:08;;;;;;;;;;;;;;;;;;4929025;29;19920;-90
2021/07/06 09:33:34;;;;;;;;;;;;;;;;;;4920703;29;19919;-93
2021/07/06 09:36:00;;;;;;;;;;;;;;;;;;4941423;29;19922;-92
2021/07/06 09:38:26;;;;;;;;;;;;;;;;;;4942818;29;20343;-88
2021/07/06 09:40:52;;;;;;;;;;;;;;;;;;4938796;29;19930;-93
2021/07/06 09:43:18;;;;;;;;;;;;;;;;;;4959300;28;20363;-93
2021/07/06 09:45:44;;;;;;;;;;;;;;;;;;4942452;29;19938;-93
2021/07/06 09:48:10;;;;;;;;;;;;;;;;;;4940855;29;19978;-94
2021/07/06 09:50:36;;;;;;;;;;;;;;;;;;4947135;28;19939;-86
2021/07/06 09:53:02;;;;;;;;;;;;;;;;;;4933692;29;19965;-87
2021/07/06 09:55:29;;;;;;;;;;;;;;;;;;4951516;28;19915;-91
2021/07/06 09:57:55;;;;;;;;;;;;;;;;;;4949225;28;20417;-90
2021/07/06 10:00:21;;;;;;;;;;;;;;;;;;4935329;29;20343;-90
2021/07/06 10:02:47;;;;;;;;;;;;;;;;;;4944473;28;19969;-90
2021/07/06 10:05:14;;;;;;;;;;;;;;;;;;4928846;29;19918;-89
2021/07/06 10:07:40;;;;;;;;;;;;;;;;;;4938532;29;20024;-93
2021/07/06 10:10:09;;;;;;;;;;;;;;;;;;4935262;29;20009;-92
2021/07/06 10:12:35;;;;;;;;;;;;;;;;;;4929190;29;19961;-91
2021/07/06 10:15:01;;;;;;;;;;;;;;;;;;4932932;29;19975;-92
2021/07/06 10:17:27;;;;;;;;;;;;;;;;;;4936825;29;19943;-92
2021/07/06 10:19:53;;;;;;;;;;;;;;;;;;4926737;29;19926;-90
2021/07/06 10:22:19;;;;;;;;;;;;;;;;;;4932347;29;19918;-91
2021/07/06 10:24:45;;;;;;;;;;;;;;;;;;4948872;28;19915;-90
2021/07/06 10:27:11;;;;;;;;;;;;;;;;;;4929573;29;19946;-91
2021/07/06 10:29:38;;;;;;;;;;;;;;;;;;4932570;29;20013;-91
2021/07/06 10:32:04;;;;;;;;;;;;;;;;;;4928337;29;20001;-90
2021/07/06 10:34:31;;;;;;;;;;;;;;;;;;4936707;28;19927;-91
2021/07/06 10:36:59;;;;;;;;;;;;;;;;;;4945797;28;19915;-90
2021/07/06 10:39:25;;;;;;;;;;;;;;;;;;4943795;28;19997;-91
2021/07/06 10:41:51;;;;;;;;;;;;;;;;;;4944407;28;20430;-91
2021/07/06 10:44:18;;;;;;;;;;;;;;;;;;4948770;28;20354;-90
2021/07/06 10:46:44;;;;;;;;;;;;;;;;;;4929570;29;19919;-90
2021/07/06 10:49:13;;;;;;;;;;;;;;;;;;4940554;28;19923;-91
2021/07/06 10:51:39;;;;;;;;;;;;;;;;;;4930171;29;19914;-91
2021/07/06 10:54:05;;;;;;;;;;;;;;;;;;4930737;29;19972;-90
2021/07/06 10:56:32;;;;;;;;;;;;;;;;;;4934876;29;20278;-90
2021/07/06 10:59:00;;;;;;;;;;;;;;;;;;4930716;29;19947;-91
2021/07/06 11:01:26;;;;;;;;;;;;;;;;;;4931283;29;20005;-90
2021/07/06 11:03:52;;;;;;;;;;;;;;;;;;4932826;29;20584;-91
2021/07/06 11:06:18;;;;;;;;;;;;;;;;;;4950899;28;20409;-90
2021/07/06 11:08:44;;;;;;;;;;;;;;;;;;4944571;28;20382;-91
2021/07/06 11:11:10;;;;;;;;;;;;;;;;;;4933324;29;20006;-90
2021/07/06 11:13:36;;;;;;;;;;;;;;;;;;4928299;29;19923;-91
2021/07/06 11:16:03;;;;;;;;;;;;;;;;;;4929567;29;19921;-92
2021/07/06 11:18:29;;;;;;;;;;;;;;;;;;4927778;29;20001;-91
2021/07/06 11:20:55;;;;;;;;;;;;;;;;;;4928770;29;19954;-91
2021/07/06 11:23:22;;;;;;;;;;;;;;;;;;4944163;28;19974;-92
2021/07/06 11:25:48;;;;;;;;;;;;;;;;;;4930916;29;20446;-89
2021/07/06 11:28:14;;;;;;;;;;;;;;;;;;4942954;28;19922;-92
2021/07/06 11:30:40;;;;;;;;;;;;;;;;;;4934037;28;19915;-90
2021/07/06 11:33:07;;;;;;;;;;;;;;;;;;4918462;29;19915;-89
2021/07/06 11:35:33;;;;;;;;;;;;;;;;;;4919929;29;20327;-89
2021/07/06 11:37:59;;;;;;;;;;;;;;;;;;4927002;29;19915;-90
2021/07/06 11:40:25;;;;;;;;;;;;;;;;;;4916719;29;19923;-92
2021/07/06 11:42:52;;;;;;;;;;;;;;;;;;4920483;29;19915;-90
2021/07/06 11:45:18;;;;;;;;;;;;;;;;;;4934538;29;19986;-91
2021/07/06 11:47:44;;;;;;;;;;;;;;;;;;4934466;29;19919;-92
2021/07/06 11:50:10;;;;;;;;;;;;;;;;;;4910799;29;19923;-92
2021/07/06 11:52:36;;;;;;;;;;;;;;;;;;4931053;29;19915;-91
2021/07/06 11:55:02;;;;;;;;;;;;;;;;;;4917415;29;21025;-90
2021/07/06 11:57:28;;;;;;;;;;;;;;;;;;4923964;29;20009;-90
2021/07/06 11:59:54;;;;;;;;;;;;;;;;;;4921994;29;20086;-89
2021/07/06 12:02:20;;;;;;;;;;;;;;;;;;4926069;29;19978;-92
2021/07/06 12:04:46;;;;;;;;;;;;;;;;;;4932868;29;19910;-91
2021/07/06 12:07:13;;;;;;;;;;;;;;;;;;4920200;29;19971;-90
2021/07/06 12:09:42;;;;;;;;;;;;;;;;;;4924009;29;20293;-90
2021/07/06 12:12:08;;;;;;;;;;;;;;;;;;4918355;29;19915;-89
2021/07/06 12:14:34;;;;;;;;;;;;;;;;;;4924458;29;19983;-89
2021/07/06 12:17:03;;;;;;;;;;;;;;;;;;4929064;29;19962;-90
2021/07/06 12:19:29;;;;;;;;;;;;;;;;;;4918914;29;19946;-89
2021/07/06 12:21:55;;;;;;;;;;;;;;;;;;4926438;29;19926;-92
2021/07/06 12:24:23;;;;;;;;;;;;;;;;;;4930039;29;19922;-90
2021/07/06 12:26:49;;;;;;;;;;;;;;;;;;4912242;29;20458;-91
2021/07/06 12:29:15;;;;;;;;;;;;;;;;;;4912912;29;19919;-91
2021/07/06 12:31:41;;;;;;;;;;;;;;;;;;4927628;29;19974;-91
2021/07/06 12:34:07;;;;;;;;;;;;;;;;;;4916246;29;19934;-91
2021/07/06 12:36:33;;;;;;;;;;;;;;;;;;4912708;29;19961;-89
2021/07/06 12:38:59;;;;;;;;;;;;;;;;;;4915659;29;19915;-92
2021/07/06 12:41:25;;;;;;;;;;;;;;;;;;4899156;29;19927;-93
2021/07/06 12:43:51;;;;;;;;;;;;;;;;;;4910708;29;20603;-92
2021/07/06 12:46:17;;;;;;;;;;;;;;;;;;4909997;29;19916;-92
2021/07/06 12:48:43;;;;;;;;;;;;;;;;;;4900361;29;19923;-92
2021/07/06 12:51:09;;;;;;;;;;;;;;;;;;4916593;29;20360;-93
2021/07/06 12:53:35;;;;;;;;;;;;;;;;;;4913386;29;19950;-90
2021/07/06 12:56:01;;;;;;;;;;;;;;;;;;4909663;29;19973;-91
2021/07/06 12:58:29;;;;;;;;;;;;;;;;;;4906303;29;19915;-92
2021/07/06 13:00:55;;;;;;;;;;;;;;;;;;4912955;29;19927;-91
2021/07/06 13:03:21;;;;;;;;;;;;;;;;;;4913776;29;19916;-90
2021/07/06 13:05:48;;;;;;;;;;;;;;;;;;4898624;29;19923;-92
2021/07/06 13:08:14;;;;;;;;;;;;;;;;;;4899201;29;20371;-93
2021/07/06 13:10:40;;;;;;;;;;;;;;;;;;4917052;29;19923;-91
2021/07/06 13:13:06;;;;;;;;;;;;;;;;;;4919084;29;19919;-94
2021/07/06 13:15:32;;;;;;;;;;;;;;;;;;4933408;29;19922;-91
2021/07/06 13:17:58;;;;;;;;;;;;;;;;;;4909334;29;19919;-93
2021/07/06 13:20:25;;;;;;;;;;;;;;;;;;4914476;29;19927;-92
2021/07/06 13:22:51;;;;;;;;;;;;;;;;;;4923411;29;19921;-91
2021/07/06 13:25:17;;;;;;;;;;;;;;;;;;4905006;29;19922;-93
2021/07/06 13:27:43;;;;;;;;;;;;;;;;;;4920656;29;20002;-90
2021/07/06 13:30:09;;;;;;;;;;;;;;;;;;4916104;29;19962;-91
2021/07/06 13:32:35;;;;;;;;;;;;;;;;;;4917866;29;19965;-92
2021/07/06 13:35:01;;;;;;;;;;;;;;;;;;4946603;28;19931;-91
2021/07/06 13:37:29;;;;;;;;;;;;;;;;;;4943969;28;19927;-92
2021/07/06 13:39:55;;;;;;;;;;;;;;;;;;4922958;29;19923;-91
2021/07/06 13:42:21;;;;;;;;;;;;;;;;;;4934008;29;19914;-89
2021/07/06 13:44:47;;;;;;;;;;;;;;;;;;4935082;29;20662;-91
2021/07/06 13:47:13;;;;;;;;;;;;;;;;;;4922641;29;19915;-92
2021/07/06 13:49:39;;;;;;;;;;;;;;;;;;4947497;28;20446;-92
2021/07/06 13:52:05;;;;;;;;;;;;;;;;;;4932932;29;19951;-92
2021/07/06 13:54:35;;;;;;;;;;;;;;;;;;4930089;29;19969;-91
2021/07/06 13:57:01;;;;;;;;;;;;;;;;;;4940167;28;20004;-92
2021/07/06 13:59:27;;;;;;;;;;;;;;;;;;4936197;29;20298;-92
2021/07/06 14:01:53;;;;;;;;;;;;;;;;;;4926918;29;19919;-91
2021/07/06 14:04:19;;;;;;;;;;;;;;;;;;4945448;28;20398;-91
2021/07/06 14:06:47;;;;;;;;;;;;;;;;;;4945612;28;20073;-91
2021/07/06 14:09:13;;;;;;;;;;;;;;;;;;4944746;28;20009;-92
2021/07/06 14:11:39;;;;;;;;;;;;;;;;;;4932696;29;19925;-90
2021/07/06 14:14:05;;;;;;;;;;;;;;;;;;4947722;28;19915;-89
2021/07/06 14:16:32;;;;;;;;;;;;;;;;;;4930308;29;19929;-92
2021/07/06 14:18:58;;;;;;;;;;;;;;;;;;4928576;29;19978;-90
2021/07/06 14:21:24;;;;;;;;;;;;;;;;;;4945939;28;19923;-90
2021/07/06 14:23:50;;;;;;;;;;;;;;;;;;4929829;29;19929;-89
2021/07/06 14:26:18;;;;;;;;;;;;;;;;;;4941710;28;20461;-90
2021/07/06 14:28:49;;;;;;;;;;;;;;;;;;4947044;28;20240;-92
2021/07/06 14:31:15;;;;;;;;;;;;;;;;;;4945586;28;19934;-92
2021/07/06 14:33:41;;;;;;;;;;;;;;;;;;4928805;29;20014;-90
2021/07/06 14:36:07;;;;;;;;;;;;;;;;;;4926236;29;19966;-91
2021/07/06 14:38:33;;;;;;;;;;;;;;;;;;4931240;29;19945;-91
2021/07/06 14:40:59;;;;;;;;;;;;;;;;;;4930830;29;19927;-91
2021/07/06 14:43:25;;;;;;;;;;;;;;;;;;4941014;28;19969;-90
2021/07/06 14:45:51;;;;;;;;;;;;;;;;;;4926692;29;19950;-92
2021/07/06 14:48:17;;;;;;;;;;;;;;;;;;4945061;28;20274;-90
2021/07/06 14:50:43;;;;;;;;;;;;;;;;;;4929596;29;19998;-92
2021/07/06 14:53:09;;;;;;;;;;;;;;;;;;4930076;29;20021;-91
2021/07/06 14:55:35;;;;;;;;;;;;;;;;;;4925854;29;19915;-89
2021/07/06 14:58:01;;;;;;;;;;;;;;;;;;4942037;29;19923;-90
2021/07/06 15:00:27;;;;;;;;;;;;;;;;;;4945354;29;19926;-90
2021/07/06 15:02:53;;;;;;;;;;;;;;;;;;4942478;28;19914;-90
2021/07/06 15:05:19;;;;;;;;;;;;;;;;;;4945032;28;19926;-89
2021/07/06 15:07:45;;;;;;;;;;;;;;;;;;4926217;29;20371;-90
2021/07/06 15:10:12;;;;;;;;;;;;;;;;;;4929841;29;19926;-90
2021/07/06 15:12:38;;;;;;;;;;;;;;;;;;4940105;29;19915;-90
2021/07/06 15:15:04;;;;;;;;;;;;;;;;;;4927174;29;19919;-91
2021/07/06 15:17:30;;;;;;;;;;;;;;;;;;4943868;28;19915;-90
2021/07/06 15:19:56;;;;;;;;;;;;;;;;;;4942219;28;20011;-90
2021/07/06 15:22:22;;;;;;;;;;;;;;;;;;4939443;29;20088;-91
2021/07/06 15:24:48;;;;;;;;;;;;;;;;;;4944661;28;19929;-89
2021/07/06 15:27:14;;;;;;;;;;;;;;;;;;4929325;29;20550;-90
2021/07/06 15:29:40;;;;;;;;;;;;;;;;;;4929110;29;19957;-90
2021/07/06 15:32:06;;;;;;;;;;;;;;;;;;4928913;29;19919;-91
2021/07/06 15:34:32;;;;;;;;;;;;;;;;;;4920759;29;19926;-90
2021/07/06 15:36:58;;;;;;;;;;;;;;;;;;4911303;29;20442;-91
2021/07/06 15:39:26;;;;;;;;;;;;;;;;;;4891619;29;19915;-90
2021/07/06 15:41:52;;;;;;;;;;;;;;;;;;4895764;29;19927;-90
2021/07/06 15:44:23;;;;;;;;;;;;;;;;;;4914909;29;19982;-90
2021/07/06 15:46:49;;;;;;;;;;;;;;;;;;4897041;29;19997;-90
2021/07/06 15:49:15;;;;;;;;;;;;;;;;;;4898571;29;20373;-90
2021/07/06 15:51:41;;;;;;;;;;;;;;;;;;4907554;29;19931;-91
2021/07/06 15:54:07;;;;;;;;;;;;;;;;;;4902002;29;20367;-90
2021/07/06 15:56:33;;;;;;;;;;;;;;;;;;4913913;29;19915;-91
2021/07/06 15:59:02;;;;;;;;;;;;;;;;;;4907165;29;19915;-90
2021/07/06 16:01:28;;;;;;;;;;;;;;;;;;4907124;29;21252;-90
2021/07/06 16:03:54;;;;;;;;;;;;;;;;;;4908543;29;20351;-88
2021/07/06 16:06:20;;;;;;;;;;;;;;;;;;4912339;29;19915;-91
2021/07/06 16:08:46;;;;;;;;;;;;;;;;;;4904128;29;19916;-90
2021/07/06 16:11:16;;;;;;;;;;;;;;;;;;4916729;29;19930;-90
2021/07/06 16:13:42;;;;;;;;;;;;;;;;;;4925083;29;19919;-90
2021/07/06 16:16:08;;;;;;;;;;;;;;;;;;4923444;29;19899;-91
2021/07/06 16:18:34;;;;;;;;;;;;;;;;;;4942116;29;19947;-91
2021/07/06 16:21:00;;;;;;;;;;;;;;;;;;4925030;29;19925;-91
2021/07/06 16:23:26;;;;;;;;;;;;;;;;;;4934165;29;19899;-91
2021/07/06 16:25:53;;;;;;;;;;;;;;;;;;4920993;29;19922;-91
2021/07/06 16:28:19;;;;;;;;;;;;;;;;;;4936863;29;19939;-91
2021/07/06 16:30:45;;;;;;;;;;;;;;;;;;4933616;29;20084;-91
2021/07/06 16:33:11;;;;;;;;;;;;;;;;;;4938983;29;19922;-92
2021/07/06 16:35:38;;;;;;;;;;;;;;;;;;4957854;29;19953;-92
2021/07/06 16:38:04;;;;;;;;;;;;;;;;;;4957036;29;19901;-92
2021/07/06 16:40:30;;;;;;;;;;;;;;;;;;4953309;29;19934;-91
2021/07/06 16:42:56;;;;;;;;;;;;;;;;;;4954504;29;19915;-91
2021/07/06 16:45:23;;;;;;;;;;;;;;;;;;4955455;29;19925;-92
2021/07/06 16:47:49;;;;;;;;;;;;;;;;;;4942051;29;19978;-91
2021/07/06 16:50:15;;;;;;;;;;;;;;;;;;4957801;29;19922;-91
2021/07/06 18:04:32;;;;;;;;;;;;;;;;;;4899259;29;19925;-91
2021/07/06 18:06:58;;;;;;;;;;;;;;;;;;4942833;29;19899;-91
2021/07/06 18:09:24;;;;;;;;;;;;;;;;;;4944112;29;19905;-91